Time,TemperatureF,DewpointF,PressureIn,WindDirection,WindDirectionDegrees,WindSpeedMPH,WindSpeedGustMPH,Humidity,HourlyPrecipIn,Conditions,Clouds,dailyrainin,SoftwareType,DateUTC
2013-03-28 00:05:00,40.6,29.4,30.78,SE,135,0.0,0.0,64,0.00,,,0.00,pywws,2013-03-28 04:05:00,
2013-03-28 00:10:00,40.5,29.3,30.79,SE,135,0.0,0.0,64,0.00,,,0.00,pywws,2013-03-28 04:10:00,
2013-03-28 00:15:00,40.5,29.3,30.79,SE,135,0.0,0.0,64,0.00,,,0.00,pywws,2013-03-28 04:15:00,
2013-03-28 00:20:00,40.1,29.3,30.79,NW,315,0.7,1.6,65,0.00,,,0.00,pywws,2013-03-28 04:20:00,
2013-03-28 00:25:00,40.3,29.1,30.79,NW,315,0.7,2.2,64,0.00,,,0.00,pywws,2013-03-28 04:25:00,
2013-03-28 00:35:00,40.8,28.4,30.79,NW,315,0.0,0.7,61,0.00,,,0.00,pywws,2013-03-28 04:35:00,
2013-03-28 00:40:00,41.2,28.8,30.80,SW,225,0.0,0.0,61,0.00,,,0.00,pywws,2013-03-28 04:40:00,
2013-03-28 00:45:00,41.2,28.4,30.80,North,0,0.0,0.0,60,0.00,,,0.00,pywws,2013-03-28 04:45:00,
2013-03-28 00:50:00,41.0,27.8,30.80,North,0,0.0,0.0,59,0.00,,,0.00,pywws,2013-03-28 04:50:00,
2013-03-28 00:55:00,41.0,28.6,30.80,North,0,0.0,0.0,61,0.00,,,0.00,pywws,2013-03-28 04:55:00,
2013-03-28 01:05:00,40.6,28.3,30.80,West,270,0.0,0.0,61,0.00,,,0.00,pywws,2013-03-28 05:05:00,
2013-03-28 01:10:00,39.7,28.6,30.80,West,270,0.0,0.0,64,0.00,,,0.00,pywws,2013-03-28 05:10:00,
2013-03-28 01:15:00,39.2,28.4,30.81,West,270,0.0,0.0,65,0.00,,,0.00,pywws,2013-03-28 05:15:00,
2013-03-28 01:20:00,38.8,28.8,30.81,West,270,0.0,0.0,67,0.00,,,0.00,pywws,2013-03-28 05:20:00,
2013-03-28 01:25:00,38.3,28.7,30.81,West,270,0.0,0.0,68,0.00,,,0.00,pywws,2013-03-28 05:25:00,
2013-03-28 01:35:00,37.4,28.5,30.81,North,0,0.0,0.0,70,0.00,,,0.00,pywws,2013-03-28 05:35:00,
2013-03-28 01:40:00,37.0,28.2,30.81,West,270,0.0,0.0,70,0.00,,,0.00,pywws,2013-03-28 05:40:00,
2013-03-28 01:45:00,36.9,28.4,30.81,East,90,0.0,0.7,71,0.00,,,0.00,pywws,2013-03-28 05:45:00,
2013-03-28 01:50:00,36.7,28.9,30.81,West,270,0.7,1.6,73,0.00,,,0.00,pywws,2013-03-28 05:50:00,
2013-03-28 01:55:00,36.1,28.7,30.81,East,90,0.0,0.7,74,0.00,,,0.00,pywws,2013-03-28 05:55:00,
2013-03-28 02:05:00,36.3,28.8,30.81,WSW,248,0.0,1.6,74,0.00,,,0.00,pywws,2013-03-28 06:05:00,
2013-03-28 02:10:00,37.2,28.7,30.81,South,180,0.7,2.2,71,0.00,,,0.00,pywws,2013-03-28 06:10:00,
2013-03-28 02:15:00,37.9,28.7,30.81,SW,225,0.7,2.2,69,0.00,,,0.00,pywws,2013-03-28 06:15:00,
2013-03-28 02:20:00,38.3,28.3,30.82,South,180,0.7,3.1,67,0.00,,,0.00,pywws,2013-03-28 06:20:00,
2013-03-28 02:25:00,38.7,28.3,30.82,South,180,0.7,3.1,66,0.00,,,0.00,pywws,2013-03-28 06:25:00,
2013-03-28 02:35:00,39.2,27.7,30.82,West,270,0.7,1.6,63,0.00,,,0.00,pywws,2013-03-28 06:35:00,
2013-03-28 02:40:00,39.4,27.5,30.82,West,270,0.0,1.6,62,0.00,,,0.00,pywws,2013-03-28 06:40:00,
2013-03-28 02:45:00,39.4,27.5,30.82,South,180,0.0,1.6,62,0.00,,,0.00,pywws,2013-03-28 06:45:00,
2013-03-28 02:50:00,39.2,27.3,30.82,SW,225,0.0,2.2,62,0.00,,,0.00,pywws,2013-03-28 06:50:00,
2013-03-28 02:55:00,39.0,27.1,30.82,West,270,0.7,2.2,62,0.00,,,0.00,pywws,2013-03-28 06:55:00,
2013-03-28 03:05:00,38.8,26.9,30.82,SW,225,0.7,1.6,62,0.00,,,0.00,pywws,2013-03-28 07:05:00,
2013-03-28 03:10:00,38.5,26.6,30.82,South,180,0.7,1.6,62,0.00,,,0.00,pywws,2013-03-28 07:10:00,
2013-03-28 03:15:00,38.5,26.2,30.83,West,270,1.6,2.2,61,0.00,,,0.00,pywws,2013-03-28 07:15:00,
2013-03-28 03:20:00,38.5,26.6,30.83,West,270,0.7,2.2,62,0.00,,,0.00,pywws,2013-03-28 07:20:00,
2013-03-28 03:25:00,38.3,26.0,30.83,West,270,0.7,1.6,61,0.00,,,0.00,pywws,2013-03-28 07:25:00,
2013-03-28 03:35:00,37.9,26.1,30.83,SW,225,0.0,1.6,62,0.00,,,0.00,pywws,2013-03-28 07:35:00,
2013-03-28 03:40:00,37.2,25.8,30.83,South,180,0.0,1.6,63,0.00,,,0.00,pywws,2013-03-28 07:40:00,
2013-03-28 03:45:00,37.2,25.8,30.83,West,270,0.7,1.6,63,0.00,,,0.00,pywws,2013-03-28 07:45:00,
2013-03-28 03:50:00,37.0,26.0,30.83,SW,225,0.7,1.6,64,0.00,,,0.00,pywws,2013-03-28 07:50:00,
2013-03-28 03:55:00,36.9,25.8,30.83,SW,225,0.0,0.0,64,0.00,,,0.00,pywws,2013-03-28 07:55:00,
2013-03-28 04:05:00,36.7,25.7,30.84,South,180,0.0,0.7,64,0.00,,,0.00,pywws,2013-03-28 08:05:00,
2013-03-28 04:10:00,36.1,25.5,30.84,SW,225,0.0,0.0,65,0.00,,,0.00,pywws,2013-03-28 08:10:00,
2013-03-28 04:15:00,35.8,25.6,30.84,SW,225,0.0,0.0,66,0.00,,,0.00,pywws,2013-03-28 08:15:00,
2013-03-28 04:20:00,35.4,25.2,30.84,SW,225,0.0,0.7,66,0.00,,,0.00,pywws,2013-03-28 08:20:00,
2013-03-28 04:25:00,35.1,25.2,30.84,SW,225,0.0,0.7,67,0.00,,,0.00,pywws,2013-03-28 08:25:00,
2013-03-28 04:35:00,34.9,25.1,30.84,SW,225,0.0,0.0,67,0.00,,,0.00,pywws,2013-03-28 08:35:00,
2013-03-28 04:40:00,34.2,24.7,30.85,East,90,0.0,0.0,68,0.00,,,0.00,pywws,2013-03-28 08:40:00,
2013-03-28 04:45:00,34.0,24.9,30.85,SW,225,0.0,0.0,69,0.00,,,0.00,pywws,2013-03-28 08:45:00,
2013-03-28 04:50:00,33.6,24.6,30.85,SW,225,0.0,0.7,69,0.00,,,0.00,pywws,2013-03-28 08:50:00,
2013-03-28 04:55:00,33.3,24.6,30.85,SW,225,0.0,0.0,70,0.00,,,0.00,pywws,2013-03-28 08:55:00,
2013-03-28 05:05:00,33.1,24.7,30.84,SW,225,0.0,0.0,71,0.00,,,0.00,pywws,2013-03-28 09:05:00,
2013-03-28 05:10:00,32.7,24.7,30.82,SW,225,0.0,0.0,72,0.00,,,0.00,pywws,2013-03-28 09:10:00,
2013-03-28 05:15:00,32.5,24.5,30.81,SW,225,0.0,0.7,72,0.00,,,0.00,pywws,2013-03-28 09:15:00,
2013-03-28 05:20:00,32.5,24.5,30.81,SW,225,0.0,0.7,72,0.00,,,0.00,pywws,2013-03-28 09:20:00,
2013-03-28 05:25:00,32.4,25.0,30.80,East,90,0.0,0.0,74,0.00,,,0.00,pywws,2013-03-28 09:25:00,
2013-03-28 05:35:00,32.2,24.8,30.79,SW,225,0.0,0.7,74,0.00,,,0.00,pywws,2013-03-28 09:35:00,
2013-03-28 05:40:00,31.8,24.8,30.79,SW,225,0.0,0.0,75,0.00,,,0.00,pywws,2013-03-28 09:40:00,
2013-03-28 05:45:00,31.6,25.0,30.79,SW,225,0.0,0.0,76,0.00,,,0.00,pywws,2013-03-28 09:45:00,
2013-03-28 05:50:00,31.5,24.8,30.80,SW,225,0.0,0.0,76,0.00,,,0.00,pywws,2013-03-28 09:50:00,
2013-03-28 05:55:00,31.3,24.9,30.80,SW,225,0.0,0.0,77,0.00,,,0.00,pywws,2013-03-28 09:55:00,
2013-03-28 06:05:00,31.1,24.7,30.80,West,270,0.0,0.0,77,0.00,,,0.00,pywws,2013-03-28 10:05:00,
2013-03-28 06:10:00,30.6,24.5,30.81,West,270,0.0,0.0,78,0.00,,,0.00,pywws,2013-03-28 10:10:00,
2013-03-28 06:15:00,30.4,24.4,30.81,West,270,0.0,0.0,78,0.00,,,0.00,pywws,2013-03-28 10:15:00,
2013-03-28 06:20:00,30.0,24.0,30.81,West,270,0.0,0.0,78,0.00,,,0.00,pywws,2013-03-28 10:20:00,
2013-03-28 06:25:00,29.8,24.1,30.81,West,270,0.0,0.0,79,0.00,,,0.00,pywws,2013-03-28 10:25:00,
2013-03-28 06:35:00,29.8,24.1,30.81,SE,135,0.0,0.0,79,0.00,,,0.00,pywws,2013-03-28 10:35:00,
2013-03-28 06:40:00,29.8,24.4,30.82,SW,225,0.0,0.7,80,0.00,,,0.00,pywws,2013-03-28 10:40:00,
2013-03-28 06:45:00,29.8,24.4,30.82,West,270,0.7,1.6,80,0.00,,,0.00,pywws,2013-03-28 10:45:00,
2013-03-28 06:50:00,29.8,24.7,30.82,West,270,0.0,0.0,81,0.00,,,0.00,pywws,2013-03-28 10:50:00,
2013-03-28 06:55:00,29.7,24.3,30.82,West,270,0.0,0.0,80,0.00,,,0.00,pywws,2013-03-28 10:55:00,
2013-03-28 07:05:00,29.5,24.4,30.83,West,270,0.0,0.0,81,0.00,,,0.00,pywws,2013-03-28 11:05:00,
2013-03-28 07:10:00,29.1,24.0,30.83,West,270,0.0,0.0,81,0.00,,,0.00,pywws,2013-03-28 11:10:00,
2013-03-28 07:15:00,28.9,24.1,30.83,South,180,0.0,0.0,82,0.00,,,0.00,pywws,2013-03-28 11:15:00,
2013-03-28 07:20:00,28.9,24.1,30.84,South,180,0.0,0.0,82,0.00,,,0.00,pywws,2013-03-28 11:20:00,
2013-03-28 07:25:00,28.9,24.1,30.84,South,180,0.0,0.0,82,0.00,,,0.00,pywws,2013-03-28 11:25:00,
2013-03-28 07:35:00,29.1,24.6,30.84,West,270,0.0,1.6,83,0.00,,,0.00,pywws,2013-03-28 11:35:00,
2013-03-28 07:40:00,29.1,24.3,30.84,West,270,0.0,0.0,82,0.00,,,0.00,pywws,2013-03-28 11:40:00,
2013-03-28 07:45:00,29.1,24.6,30.85,West,270,0.0,0.0,83,0.00,,,0.00,pywws,2013-03-28 11:45:00,
2013-03-28 07:50:00,29.1,24.6,30.85,West,270,0.0,0.0,83,0.00,,,0.00,pywws,2013-03-28 11:50:00,
2013-03-28 07:55:00,29.3,24.8,30.85,West,270,0.0,0.0,83,0.00,,,0.00,pywws,2013-03-28 11:55:00,
2013-03-28 08:05:00,29.5,25.0,30.84,West,270,0.0,0.0,83,0.00,,,0.00,pywws,2013-03-28 12:05:00,
2013-03-28 08:10:00,30.0,25.5,30.83,West,270,0.0,0.7,83,0.00,,,0.00,pywws,2013-03-28 12:10:00,
2013-03-28 08:15:00,30.4,25.8,30.82,West,270,0.0,0.0,83,0.00,,,0.00,pywws,2013-03-28 12:15:00,
2013-03-28 08:20:00,30.6,26.0,30.82,West,270,0.0,0.0,83,0.00,,,0.00,pywws,2013-03-28 12:20:00,
2013-03-28 08:25:00,30.9,26.4,30.82,West,270,0.0,0.0,83,0.00,,,0.00,pywws,2013-03-28 12:25:00,
2013-03-28 08:35:00,31.3,26.7,30.82,West,270,0.7,1.6,83,0.00,,,0.00,pywws,2013-03-28 12:35:00,
2013-03-28 08:40:00,32.7,27.5,30.82,West,270,0.0,0.0,81,0.00,,,0.00,pywws,2013-03-28 12:40:00,
2013-03-28 08:45:00,33.4,27.9,30.82,West,270,0.0,0.0,80,0.00,,,0.00,pywws,2013-03-28 12:45:00,
2013-03-28 08:50:00,34.2,28.0,30.82,NW,315,0.0,0.0,78,0.00,,,0.00,pywws,2013-03-28 12:50:00,
2013-03-28 08:55:00,34.9,28.4,30.82,West,270,0.0,0.7,77,0.00,,,0.00,pywws,2013-03-28 12:55:00,
2013-03-28 09:05:00,35.6,28.8,30.83,NW,315,0.0,0.0,76,0.00,,,0.00,pywws,2013-03-28 13:05:00,
2013-03-28 09:09:00,37.0,29.5,30.83,NW,315,1.6,3.1,74,0.00,,,0.00,pywws,2013-03-28 13:09:00,
2013-03-28 09:14:00,38.5,29.6,30.83,North,0,0.0,0.7,70,0.00,,,0.00,pywws,2013-03-28 13:14:00,
2013-03-28 09:19:00,39.9,28.4,30.83,NE,45,0.7,2.2,63,0.00,,,0.00,pywws,2013-03-28 13:19:00,
2013-03-28 09:24:00,41.5,26.6,30.83,NW,315,0.7,2.2,55,0.00,,,0.00,pywws,2013-03-28 13:24:00,
2013-03-28 09:35:00,42.4,26.1,30.83,NE,45,1.6,3.1,52,0.00,,,0.00,pywws,2013-03-28 13:35:00,
2013-03-28 09:40:00,43.7,25.3,30.84,West,270,0.7,3.8,48,0.00,,,0.00,pywws,2013-03-28 13:40:00,
2013-03-28 09:45:00,44.2,26.3,30.84,South,180,0.0,1.6,49,0.00,,,0.00,pywws,2013-03-28 13:45:00,
2013-03-28 09:50:00,46.0,24.8,30.84,West,270,0.7,3.1,43,0.00,,,0.00,pywws,2013-03-28 13:50:00,
2013-03-28 09:55:00,46.9,25.6,30.84,NW,315,0.0,1.6,43,0.00,,,0.00,pywws,2013-03-28 13:55:00,
2013-03-28 10:05:00,48.0,25.5,30.84,NW,315,0.7,1.6,41,0.00,,,0.00,pywws,2013-03-28 14:05:00,
2013-03-28 10:10:00,48.6,25.3,30.84,West,270,0.7,1.6,40,0.00,,,0.00,pywws,2013-03-28 14:10:00,
2013-03-28 10:15:00,48.6,24.7,30.84,WSW,248,0.7,2.2,39,0.00,,,0.00,pywws,2013-03-28 14:15:00,
2013-03-28 10:20:00,48.6,24.1,30.84,East,90,0.0,1.6,38,0.00,,,0.00,pywws,2013-03-28 14:20:00,
2013-03-28 10:25:00,48.7,24.9,30.83,West,270,0.7,3.1,39,0.00,,,0.00,pywws,2013-03-28 14:25:00,
2013-03-28 10:35:00,50.0,26.0,30.82,NE,45,0.7,2.2,39,0.00,,,0.00,pywws,2013-03-28 14:35:00,
2013-03-28 10:39:00,49.5,24.9,30.80,SW,225,1.6,3.1,38,0.00,,,0.00,pywws,2013-03-28 14:39:00,
2013-03-28 10:44:00,49.6,25.1,30.78,North,0,0.7,2.2,38,0.00,,,0.00,pywws,2013-03-28 14:44:00,
2013-03-28 10:54:00,51.3,25.2,30.78,East,90,0.7,3.8,36,0.00,,,0.00,pywws,2013-03-28 14:54:00,
2013-03-28 11:05:00,51.6,25.5,30.78,SSW,202,0.0,1.6,36,0.00,,,0.00,pywws,2013-03-28 15:05:00,
2013-03-28 11:10:00,53.2,24.9,30.78,South,180,2.2,4.5,33,0.00,,,0.00,pywws,2013-03-28 15:10:00,
2013-03-28 11:15:00,53.4,24.3,30.78,West,270,4.5,6.0,32,0.00,,,0.00,pywws,2013-03-28 15:15:00,
2013-03-28 11:20:00,52.5,24.3,30.78,SW,225,3.8,5.4,33,0.00,,,0.00,pywws,2013-03-28 15:20:00,
2013-03-28 11:25:00,52.3,24.1,30.78,North,0,3.8,6.9,33,0.00,,,0.00,pywws,2013-03-28 15:25:00,
2013-03-28 11:35:00,53.8,24.6,30.78,North,0,2.2,3.8,32,0.00,,,0.00,pywws,2013-03-28 15:35:00,
2013-03-28 11:40:00,54.5,26.0,30.78,North,0,0.0,2.2,33,0.00,,,0.00,pywws,2013-03-28 15:40:00,
2013-03-28 11:45:00,54.3,24.3,30.78,North,0,3.1,8.3,31,0.00,,,0.00,pywws,2013-03-28 15:45:00,
2013-03-28 11:50:00,53.4,23.6,30.78,West,270,4.5,6.9,31,0.00,,,0.00,pywws,2013-03-28 15:50:00,
2013-03-28 11:55:00,53.6,23.7,30.78,SSW,202,1.6,3.8,31,0.00,,,0.00,pywws,2013-03-28 15:55:00,
2013-03-28 12:05:00,55.4,25.3,30.78,NW,315,0.7,2.2,31,0.00,,,0.00,pywws,2013-03-28 16:05:00,
2013-03-28 12:10:00,55.2,23.5,30.78,SW,225,3.1,5.4,29,0.00,,,0.00,pywws,2013-03-28 16:10:00,
2013-03-28 12:15:00,54.9,24.0,30.78,West,270,3.1,5.4,30,0.00,,,0.00,pywws,2013-03-28 16:15:00,
2013-03-28 12:20:00,56.5,26.2,30.78,NW,315,1.6,2.2,31,0.00,,,0.00,pywws,2013-03-28 16:20:00,
2013-03-28 12:25:00,56.3,23.6,30.78,West,270,2.2,5.4,28,0.00,,,0.00,pywws,2013-03-28 16:25:00,
2013-03-28 12:35:00,55.4,23.7,30.78,West,270,3.1,4.5,29,0.00,,,0.00,pywws,2013-03-28 16:35:00,
2013-03-28 12:40:00,55.6,24.6,30.78,NW,315,3.8,6.9,30,0.00,,,0.00,pywws,2013-03-28 16:40:00,
2013-03-28 12:45:00,55.6,23.0,30.78,SSE,158,1.6,3.8,28,0.00,,,0.00,pywws,2013-03-28 16:45:00,
2013-03-28 12:50:00,55.9,22.5,30.78,West,270,3.1,5.4,27,0.00,,,0.00,pywws,2013-03-28 16:50:00,
2013-03-28 12:55:00,56.3,22.8,30.78,NW,315,3.1,6.9,27,0.00,,,0.00,pywws,2013-03-28 16:55:00,
2013-03-28 13:05:00,57.6,24.7,30.78,North,0,0.7,2.2,28,0.00,,,0.00,pywws,2013-03-28 17:05:00,
2013-03-28 13:09:00,56.8,22.3,30.78,NNW,338,5.4,8.3,26,0.00,,,0.00,pywws,2013-03-28 17:09:00,
2013-03-28 13:14:00,56.8,23.2,30.78,SW,225,3.8,6.0,27,0.00,,,0.00,pywws,2013-03-28 17:14:00,
2013-03-28 13:19:00,56.5,23.8,30.78,South,180,0.7,2.2,28,0.00,,,0.00,pywws,2013-03-28 17:19:00,
2013-03-28 13:24:00,57.0,23.4,30.77,West,270,4.5,8.3,27,0.00,,,0.00,pywws,2013-03-28 17:24:00,
2013-03-28 13:35:00,56.5,22.9,30.77,West,270,6.0,8.3,27,0.00,,,0.00,pywws,2013-03-28 17:35:00,
2013-03-28 13:40:00,56.5,22.0,30.77,NW,315,3.1,5.4,26,0.00,,,0.00,pywws,2013-03-28 17:40:00,
2013-03-28 13:45:00,57.2,22.6,30.77,East,90,1.6,2.2,26,0.00,,,0.00,pywws,2013-03-28 17:45:00,
2013-03-28 13:50:00,57.6,21.1,30.77,West,270,3.8,5.4,24,0.00,,,0.00,pywws,2013-03-28 17:50:00,
2013-03-28 13:55:00,57.2,20.7,30.77,West,270,5.4,9.2,24,0.00,,,0.00,pywws,2013-03-28 17:55:00,
2013-03-28 14:05:00,57.4,22.8,30.77,NW,315,2.2,3.8,26,0.00,,,0.00,pywws,2013-03-28 18:05:00,
2013-03-28 14:10:00,58.8,22.1,30.76,NW,315,4.5,7.6,24,0.00,,,0.00,pywws,2013-03-28 18:10:00,
2013-03-28 14:15:00,58.6,21.0,30.76,West,270,4.5,7.6,23,0.00,,,0.00,pywws,2013-03-28 18:15:00,
2013-03-28 14:20:00,59.4,21.6,30.76,NW,315,4.5,8.3,23,0.00,,,0.00,pywws,2013-03-28 18:20:00,
2013-03-28 14:25:00,59.4,22.6,30.76,NW,315,1.6,3.1,24,0.00,,,0.00,pywws,2013-03-28 18:25:00,
2013-03-28 14:35:00,61.2,23.1,30.76,WSW,248,4.5,7.6,23,0.00,,,0.00,pywws,2013-03-28 18:35:00,
2013-03-28 14:40:00,59.2,22.4,30.76,SW,225,1.6,3.1,24,0.00,,,0.00,pywws,2013-03-28 18:40:00,
2013-03-28 14:45:00,60.1,21.1,30.75,West,270,3.1,8.3,22,0.00,,,0.00,pywws,2013-03-28 18:45:00,
2013-03-28 14:50:00,60.1,21.1,30.75,South,180,2.2,5.4,22,0.00,,,0.00,pywws,2013-03-28 18:50:00,
2013-03-28 14:55:00,60.4,20.3,30.75,NW,315,3.1,5.4,21,0.00,,,0.00,pywws,2013-03-28 18:55:00,
2013-03-28 15:05:00,60.8,20.6,30.75,South,180,6.0,10.7,21,0.00,,,0.00,pywws,2013-03-28 19:05:00,
2013-03-28 15:10:00,60.6,20.5,30.74,West,270,4.5,9.2,21,0.00,,,0.00,pywws,2013-03-28 19:10:00,
2013-03-28 15:15:00,60.3,20.2,30.74,South,180,1.6,2.2,21,0.00,,,0.00,pywws,2013-03-28 19:15:00,
2013-03-28 15:20:00,60.8,19.5,30.74,West,270,4.5,7.6,20,0.00,,,0.00,pywws,2013-03-28 19:20:00,
2013-03-28 15:25:00,61.3,19.9,30.74,North,0,0.7,4.5,20,0.00,,,0.00,pywws,2013-03-28 19:25:00,
2013-03-28 15:35:00,61.7,19.0,30.74,NW,315,4.5,6.9,19,0.00,,,0.00,pywws,2013-03-28 19:35:00,
2013-03-28 15:40:00,61.9,19.2,30.73,NW,315,4.5,7.6,19,0.00,,,0.00,pywws,2013-03-28 19:40:00,
2013-03-28 15:45:00,61.0,18.4,30.73,NE,45,3.1,9.2,19,0.00,,,0.00,pywws,2013-03-28 19:45:00,
2013-03-28 15:50:00,60.8,18.3,30.73,NW,315,5.4,7.6,19,0.00,,,0.00,pywws,2013-03-28 19:50:00,
2013-03-28 15:55:00,60.3,17.8,30.73,NW,315,3.8,8.3,19,0.00,,,0.00,pywws,2013-03-28 19:55:00,
2013-03-28 16:05:00,60.3,19.0,30.73,West,270,2.2,4.5,20,0.00,,,0.00,pywws,2013-03-28 20:05:00,
2013-03-28 16:09:00,61.2,18.6,30.73,West,270,3.8,6.0,19,0.00,,,0.00,pywws,2013-03-28 20:09:00,
2013-03-28 16:14:00,60.8,18.3,30.73,West,270,2.2,4.5,19,0.00,,,0.00,pywws,2013-03-28 20:14:00,
2013-03-28 16:19:00,60.6,18.1,30.73,West,270,3.8,6.0,19,0.00,,,0.00,pywws,2013-03-28 20:19:00,
2013-03-28 16:24:00,61.2,16.0,30.73,West,270,9.2,13.6,17,0.00,,,0.00,pywws,2013-03-28 20:24:00,
2013-03-28 16:35:00,60.4,16.7,30.73,West,270,6.0,7.6,18,0.00,,,0.00,pywws,2013-03-28 20:35:00,
2013-03-28 16:40:00,61.0,17.2,30.72,NW,315,0.7,3.8,18,0.00,,,0.00,pywws,2013-03-28 20:40:00,
2013-03-28 16:45:00,62.1,18.1,30.72,NW,315,5.4,9.2,18,0.00,,,0.00,pywws,2013-03-28 20:45:00,
2013-03-28 16:50:00,61.5,16.3,30.72,West,270,5.4,7.6,17,0.00,,,0.00,pywws,2013-03-28 20:50:00,
2013-03-28 16:55:00,61.2,16.0,30.72,West,270,5.4,10.7,17,0.00,,,0.00,pywws,2013-03-28 20:55:00,
2013-03-28 17:05:00,61.2,18.6,30.72,NW,315,3.8,8.3,19,0.00,,,0.00,pywws,2013-03-28 21:05:00,
2013-03-28 17:10:00,61.0,17.2,30.72,NW,315,1.6,3.8,18,0.00,,,0.00,pywws,2013-03-28 21:10:00,
2013-03-28 17:15:00,61.0,15.9,30.71,SE,135,0.7,2.2,17,0.00,,,0.00,pywws,2013-03-28 21:15:00,
2013-03-28 17:20:00,61.3,17.5,30.71,NW,315,2.2,5.4,18,0.00,,,0.00,pywws,2013-03-28 21:20:00,
2013-03-28 17:25:00,61.0,15.9,30.71,NW,315,3.8,7.6,17,0.00,,,0.00,pywws,2013-03-28 21:25:00,
2013-03-28 17:35:00,61.0,17.2,30.71,NW,315,3.1,5.4,18,0.00,,,0.00,pywws,2013-03-28 21:35:00,
2013-03-28 17:40:00,61.2,16.0,30.71,West,270,2.2,5.4,17,0.00,,,0.00,pywws,2013-03-28 21:40:00,
2013-03-28 17:45:00,61.9,16.6,30.71,WNW,292,3.8,6.9,17,0.00,,,0.00,pywws,2013-03-28 21:45:00,
2013-03-28 17:50:00,62.2,16.9,30.71,West,270,3.1,4.5,17,0.00,,,0.00,pywws,2013-03-28 21:50:00,
2013-03-28 17:55:00,61.9,16.6,30.71,South,180,1.6,3.8,17,0.00,,,0.00,pywws,2013-03-28 21:55:00,
2013-03-28 18:05:00,61.9,15.2,30.71,West,270,2.2,4.5,16,0.00,,,0.00,pywws,2013-03-28 22:05:00,
2013-03-28 18:09:00,62.1,16.8,30.71,NW,315,2.2,6.0,17,0.00,,,0.00,pywws,2013-03-28 22:09:00,
2013-03-28 18:14:00,62.8,14.5,30.71,West,270,3.8,6.0,15,0.00,,,0.00,pywws,2013-03-28 22:14:00,
2013-03-28 18:19:00,62.8,15.9,30.71,West,270,1.6,3.8,16,0.00,,,0.00,pywws,2013-03-28 22:19:00,
2013-03-28 18:24:00,62.6,15.8,30.71,NW,315,2.2,4.5,16,0.00,,,0.00,pywws,2013-03-28 22:24:00,
2013-03-28 18:35:00,62.1,15.4,30.71,NW,315,3.1,4.5,16,0.00,,,0.00,pywws,2013-03-28 22:35:00,
2013-03-28 18:40:00,61.5,14.9,30.71,NW,315,0.7,2.2,16,0.00,,,0.00,pywws,2013-03-28 22:40:00,
2013-03-28 18:45:00,61.2,16.0,30.71,West,270,3.1,4.5,17,0.00,,,0.00,pywws,2013-03-28 22:45:00,
2013-03-28 18:50:00,61.0,17.2,30.71,West,270,0.0,1.6,18,0.00,,,0.00,pywws,2013-03-28 22:50:00,
2013-03-28 18:55:00,61.3,17.5,30.71,West,270,0.7,2.2,18,0.00,,,0.00,pywws,2013-03-28 22:55:00,
2013-03-28 19:05:00,61.9,19.2,30.71,NNW,338,0.7,1.6,19,0.00,,,0.00,pywws,2013-03-28 23:05:00,
2013-03-28 19:09:00,60.8,19.5,30.70,West,270,1.6,2.2,20,0.00,,,0.00,pywws,2013-03-28 23:09:00,
2013-03-28 19:14:00,60.3,19.0,30.70,NW,315,0.0,0.7,20,0.00,,,0.00,pywws,2013-03-28 23:14:00,
2013-03-28 19:19:00,59.9,18.7,30.70,West,270,0.0,1.6,20,0.00,,,0.00,pywws,2013-03-28 23:19:00,
2013-03-28 19:24:00,59.5,20.7,30.70,NW,315,0.0,1.6,22,0.00,,,0.00,pywws,2013-03-28 23:24:00,
2013-03-28 19:35:00,58.6,22.0,30.70,SE,135,0.0,0.0,24,0.00,,,0.00,pywws,2013-03-28 23:35:00,
2013-03-28 19:40:00,57.0,22.5,30.70,SE,135,0.0,0.7,26,0.00,,,0.00,pywws,2013-03-28 23:40:00,
2013-03-28 19:45:00,56.1,23.5,30.71,SE,135,0.0,0.0,28,0.00,,,0.00,pywws,2013-03-28 23:45:00,
2013-03-28 19:50:00,55.2,23.5,30.70,SE,135,0.0,0.7,29,0.00,,,0.00,pywws,2013-03-28 23:50:00,
2013-03-28 19:55:00,54.7,23.9,30.70,SE,135,0.0,0.7,30,0.00,,,0.00,pywws,2013-03-28 23:55:00,
2013-03-28 20:05:00,54.0,24.0,30.70,SE,135,0.0,0.0,31,0.00,,,0.00,pywws,2013-03-29 00:05:00,
2013-03-28 20:09:00,52.7,25.8,30.70,SE,135,0.0,0.0,35,0.00,,,0.00,pywws,2013-03-29 00:09:00,
2013-03-28 20:14:00,52.0,25.9,30.70,SE,135,0.0,0.0,36,0.00,,,0.00,pywws,2013-03-29 00:14:00,
2013-03-28 20:19:00,51.4,25.4,30.70,SE,135,0.0,0.0,36,0.00,,,0.00,pywws,2013-03-29 00:19:00,
2013-03-28 20:24:00,51.1,26.4,30.71,SE,135,0.0,0.0,38,0.00,,,0.00,pywws,2013-03-29 00:24:00,
2013-03-28 20:35:00,50.5,26.5,30.71,SE,135,0.0,0.0,39,0.00,,,0.00,pywws,2013-03-29 00:35:00,
2013-03-28 20:39:00,49.6,28.1,30.71,SE,135,0.0,0.7,43,0.00,,,0.00,pywws,2013-03-29 00:39:00,
2013-03-28 20:44:00,49.3,26.6,30.71,SE,135,0.0,0.7,41,0.00,,,0.00,pywws,2013-03-29 00:44:00,
2013-03-28 20:49:00,49.1,27.0,30.71,SE,135,0.0,0.0,42,0.00,,,0.00,pywws,2013-03-29 00:49:00,
2013-03-28 20:54:00,48.7,27.3,30.71,SE,135,0.0,0.0,43,0.00,,,0.00,pywws,2013-03-29 00:54:00,
2013-03-28 21:05:00,48.4,26.9,30.71,SE,135,0.0,0.0,43,0.00,,,0.00,pywws,2013-03-29 01:05:00,
2013-03-28 21:10:00,47.7,28.9,30.71,SE,135,0.0,0.0,48,0.00,,,0.00,pywws,2013-03-29 01:10:00,
2013-03-28 21:15:00,47.3,29.1,30.71,SE,135,0.0,0.0,49,0.00,,,0.00,pywws,2013-03-29 01:15:00,
2013-03-28 21:20:00,46.9,29.3,30.71,SE,135,0.0,0.0,50,0.00,,,0.00,pywws,2013-03-29 01:20:00,
2013-03-28 21:25:00,46.8,29.1,30.71,South,180,0.0,0.7,50,0.00,,,0.00,pywws,2013-03-29 01:25:00,
2013-03-28 21:35:00,46.4,28.8,30.71,South,180,0.0,0.0,50,0.00,,,0.00,pywws,2013-03-29 01:35:00,
2013-03-28 21:39:00,45.9,28.8,30.71,South,180,0.0,0.0,51,0.00,,,0.00,pywws,2013-03-29 01:39:00,
2013-03-28 21:45:00,45.5,28.4,30.71,South,180,0.0,0.0,51,0.00,,,0.00,pywws,2013-03-29 01:45:00,
2013-03-28 21:50:00,45.3,28.7,30.71,South,180,0.0,0.0,52,0.00,,,0.00,pywws,2013-03-29 01:50:00,
2013-03-28 22:02:00,45.0,28.4,30.71,South,180,0.0,0.0,52,0.00,,,0.00,pywws,2013-03-29 02:02:00,
2013-03-28 22:07:00,45.0,29.8,30.71,South,180,0.7,1.6,55,0.00,,,0.00,pywws,2013-03-29 02:07:00,
2013-03-28 22:12:00,44.6,29.0,30.71,South,180,0.0,0.0,54,0.00,,,0.00,pywws,2013-03-29 02:12:00,
2013-03-28 22:18:00,43.9,29.2,30.71,West,270,0.7,1.6,56,0.00,,,0.00,pywws,2013-03-29 02:18:00,
2013-03-28 22:23:00,44.2,29.5,30.71,West,270,0.0,0.7,56,0.00,,,0.00,pywws,2013-03-29 02:23:00,
2013-03-28 22:34:00,44.1,28.9,30.71,West,270,0.0,0.0,55,0.00,,,0.00,pywws,2013-03-29 02:34:00,
2013-03-28 22:39:00,43.5,29.3,30.72,South,180,0.0,0.0,57,0.00,,,0.00,pywws,2013-03-29 02:39:00,
2013-03-28 22:44:00,43.3,29.1,30.72,West,270,0.0,0.0,57,0.00,,,0.00,pywws,2013-03-29 02:44:00,
2013-03-28 22:50:00,43.2,29.4,30.72,SE,135,0.0,0.0,58,0.00,,,0.00,pywws,2013-03-29 02:50:00,
2013-03-28 22:55:00,43.0,29.2,30.72,SE,135,0.0,0.0,58,0.00,,,0.00,pywws,2013-03-29 02:55:00,
2013-03-28 23:06:00,42.8,29.1,30.72,SE,135,0.0,0.0,58,0.00,,,0.00,pywws,2013-03-29 03:06:00,
2013-03-28 23:11:00,42.3,29.4,30.72,SE,135,0.0,0.0,60,0.00,,,0.00,pywws,2013-03-29 03:11:00,
2013-03-28 23:16:00,42.1,29.2,30.73,SE,135,0.0,0.0,60,0.00,,,0.00,pywws,2013-03-29 03:16:00,
2013-03-28 23:22:00,41.9,29.4,30.73,SE,135,0.0,0.0,61,0.00,,,0.00,pywws,2013-03-29 03:22:00,
2013-03-28 23:32:00,41.7,29.7,30.73,SE,135,0.0,0.0,62,0.00,,,0.00,pywws,2013-03-29 03:32:00,
2013-03-28 23:38:00,41.4,29.3,30.73,South,180,0.0,0.0,62,0.00,,,0.00,pywws,2013-03-29 03:38:00,
2013-03-28 23:43:00,41.4,29.3,30.73,West,270,0.0,0.0,62,0.00,,,0.00,pywws,2013-03-29 03:43:00,
2013-03-28 23:48:00,41.2,29.6,30.73,West,270,0.0,0.0,63,0.00,,,0.00,pywws,2013-03-29 03:48:00,
2013-03-28 23:54:00,40.8,29.6,30.73,West,270,0.0,0.0,64,0.00,,,0.00,pywws,2013-03-29 03:54:00,